Time;durP1;ratioP1;P1;durP2;ratioP2;P2;SDS_P1;SDS_P2;PMS_P1;PMS_P2;Temp;Humidity;BMP_temperature;BMP_pressure;BME280_temperature;BME280_humidity;BME280_pressure;Samples;Min_cycle;Max_cycle;Signal;HPM_P1;HPM_P2
2021/01/03 00:01:52;;;;;;;126.85;42.90;;;0.30;99.90;;;;;;5013652;28;20417;-74
2021/01/03 00:04:18;;;;;;;114.40;41.90;;;0.40;99.90;;;;;;5013883;28;20394;-74
2021/01/03 00:06:44;;;;;;;118.80;43.92;;;0.30;99.90;;;;;;5013515;28;20041;-74
2021/01/03 00:09:10;;;;;;;122.13;42.38;;;0.20;99.90;;;;;;5013727;28;20026;-74
2021/01/03 00:11:36;;;;;;;114.90;37.97;;;0.00;99.90;;;;;;5013438;28;20041;-74
2021/01/03 00:14:03;;;;;;;123.70;40.92;;;-0.10;99.90;;;;;;5013625;28;20389;-74
2021/01/03 00:16:29;;;;;;;112.13;40.42;;;-0.30;99.90;;;;;;5013195;28;20172;-73
2021/01/03 00:18:55;;;;;;;123.75;41.75;;;-0.30;99.90;;;;;;5013620;28;20105;-74
2021/01/03 00:21:20;;;;;;;131.25;42.38;;;-0.30;99.90;;;;;;5012468;28;20099;-73
2021/01/03 00:23:46;;;;;;;132.20;40.95;;;-0.10;99.90;;;;;;5013413;28;20101;-74
2021/01/03 00:26:12;;;;;;;124.55;40.90;;;-0.10;99.90;;;;;;5013273;28;20266;-74
2021/01/03 00:28:37;;;;;;;128.52;42.65;;;0.00;99.90;;;;;;5013314;28;20053;-73
2021/01/03 00:31:03;;;;;;;119.63;42.58;;;0.10;99.90;;;;;;5013569;28;20025;-73
2021/01/03 00:33:29;;;;;;;122.47;42.50;;;0.10;99.90;;;;;;5013370;28;20382;-74
2021/01/03 00:35:55;;;;;;;115.72;40.08;;;0.10;99.90;;;;;;5013231;28;20108;-74
2021/01/03 00:38:21;;;;;;;124.57;43.85;;;0.30;99.90;;;;;;5012906;28;20026;-74
2021/01/03 00:40:46;;;;;;;111.65;40.60;;;0.30;99.90;;;;;;5011854;28;20022;-73
2021/01/03 00:43:14;;;;;;;104.45;39.50;;;0.50;99.90;;;;;;5012984;28;20018;-74
2021/01/03 00:45:41;;;;;;;112.18;41.20;;;0.50;99.90;;;;;;5013042;28;20056;-74
2021/01/03 00:48:08;;;;;;;125.15;43.45;;;0.30;99.90;;;;;;5012699;28;20418;-73
2021/01/03 00:50:34;;;;;;;113.28;42.75;;;0.10;99.90;;;;;;5012901;28;20026;-73
2021/01/03 00:53:00;;;;;;;115.93;41.05;;;0.20;99.90;;;;;;5012640;28;20175;-74
2021/01/03 00:55:26;;;;;;;115.32;41.78;;;0.20;99.90;;;;;;5012943;28;20204;-74
2021/01/03 00:57:52;;;;;;;113.28;40.13;;;0.20;99.90;;;;;;5011209;28;20108;-74
2021/01/03 01:00:32;;;;;;;122.25;40.95;;;0.30;99.90;;;;;;5012799;28;20017;-74
2021/01/03 01:02:59;;;;;;;123.70;41.35;;;0.30;99.90;;;;;;5011272;28;20049;-73
2021/01/03 01:05:26;;;;;;;117.00;41.28;;;0.40;99.90;;;;;;5012668;28;20037;-74
2021/01/03 01:07:51;;;;;;;108.18;37.67;;;0.40;99.90;;;;;;5012321;28;20025;-74
2021/01/03 01:10:24;;;;;;;117.90;41.53;;;0.50;99.90;;;;;;5012619;28;20371;-74
2021/01/03 01:12:52;;;;;;;108.72;39.45;;;0.40;99.90;;;;;;5012630;28;20033;-74
2021/01/03 01:15:21;;;;;;;117.25;39.22;;;0.10;99.90;;;;;;5012284;28;20378;-74
2021/01/03 01:17:49;;;;;;;117.82;39.67;;;0.10;99.90;;;;;;5012518;28;20032;-74
2021/01/03 01:20:16;;;;;;;114.32;41.58;;;0.20;99.90;;;;;;5012671;28;20558;-74
2021/01/03 01:22:42;;;;;;;104.70;40.40;;;0.10;99.90;;;;;;5013035;28;20030;-74
2021/01/03 01:25:09;;;;;;;109.88;41.00;;;0.30;99.90;;;;;;5012571;28;20017;-74
2021/01/03 01:27:35;;;;;;;106.40;38.65;;;0.30;99.90;;;;;;5012518;28;20049;-74
2021/01/03 01:30:00;;;;;;;100.32;36.75;;;0.20;99.90;;;;;;5012187;28;20057;-75
2021/01/03 01:32:26;;;;;;;110.78;38.85;;;0.30;99.90;;;;;;5012305;28;20076;-74
2021/01/03 01:34:52;;;;;;;104.95;38.80;;;0.40;99.90;;;;;;5012197;28;20034;-74
2021/01/03 01:37:18;;;;;;;110.05;39.97;;;0.40;99.90;;;;;;5012266;28;20036;-74
2021/01/03 01:39:43;;;;;;;105.57;35.38;;;0.50;99.90;;;;;;5011749;28;20026;-73
2021/01/03 01:42:09;;;;;;;99.72;38.90;;;0.50;99.90;;;;;;5010762;28;20494;-74
2021/01/03 01:44:35;;;;;;;104.15;38.42;;;0.60;99.90;;;;;;5011750;28;20102;-74
2021/01/03 01:47:08;;;;;;;104.55;40.72;;;0.70;99.90;;;;;;5011996;28;20087;-74
2021/01/03 01:49:40;;;;;;;109.35;39.45;;;0.60;99.90;;;;;;5011632;28;20033;-74
2021/01/03 01:52:06;;;;;;;108.40;39.10;;;0.50;99.90;;;;;;5011790;28;20021;-73
2021/01/03 01:54:38;;;;;;;100.38;36.97;;;0.20;99.90;;;;;;5011764;28;20038;-74
2021/01/03 01:57:18;;;;;;;103.80;38.33;;;0.20;99.90;;;;;;4993909;28;20026;-74
2021/01/03 01:59:52;;;;;;;104.97;39.70;;;0.30;99.90;;;;;;5011750;28;20026;-73
2021/01/03 02:02:32;;;;;;;102.10;38.42;;;0.30;99.90;;;;;;5011700;28;20026;-74
2021/01/03 02:05:00;;;;;;;108.65;41.55;;;0.40;99.90;;;;;;5011645;28;20018;-74
2021/01/03 02:07:35;;;;;;;101.13;37.55;;;0.30;99.90;;;;;;5011438;28;20029;-74
2021/01/03 02:10:27;;;;;;;99.97;38.13;;;0.30;99.90;;;;;;5011640;28;20112;-73
2021/01/03 02:13:18;;;;;;;101.00;35.63;;;0.20;99.90;;;;;;5010638;28;20497;-74
2021/01/03 02:15:44;;;;;;;110.88;42.53;;;0.10;99.90;;;;;;5011083;28;20129;-74
2021/01/03 02:18:12;;;;;;;114.57;41.15;;;0.30;99.90;;;;;;5011393;28;20093;-74
2021/01/03 02:21:11;;;;;;;123.03;43.80;;;0.40;99.90;;;;;;5011342;28;20041;-73
2021/01/03 02:24:11;;;;;;;100.68;39.08;;;0.50;99.90;;;;;;5011416;28;20412;-74
2021/01/03 02:26:49;;;;;;;127.50;41.95;;;0.30;99.90;;;;;;5011479;28;20022;-74
2021/01/03 02:29:18;;;;;;;110.50;41.20;;;0.30;99.90;;;;;;5011383;28;20026;-74
2021/01/03 02:31:49;;;;;;;110.15;41.45;;;0.30;99.90;;;;;;5011368;28;20100;-75
2021/01/03 02:34:46;;;;;;;113.63;39.17;;;0.40;99.90;;;;;;5010094;28;20025;-74
2021/01/03 02:37:30;;;;;;;110.50;39.10;;;0.40;99.90;;;;;;5010514;28;20040;-74
2021/01/03 02:40:11;;;;;;;117.93;39.92;;;0.50;99.90;;;;;;5011191;28;20359;-74
2021/01/03 02:42:39;;;;;;;115.20;39.90;;;0.50;99.90;;;;;;5010459;28;20025;-74
2021/01/03 02:45:11;;;;;;;118.80;38.72;;;0.60;99.90;;;;;;5017742;28;20474;-74
2021/01/03 02:47:37;;;;;;;;;;;0.70;99.90;;;;;;5017912;28;20391;-74
2021/01/03 02:50:15;;;;;;;121.55;40.15;;;0.80;99.90;;;;;;5016376;28;20312;-74
2021/01/03 02:52:43;;;;;;;119.70;39.22;;;0.40;99.90;;;;;;5017391;28;20512;-74
2021/01/03 02:55:10;;;;;;;104.55;37.60;;;0.30;99.90;;;;;;5017754;28;20026;-74
2021/01/03 02:57:37;;;;;;;109.75;37.30;;;0.30;99.90;;;;;;5017348;28;20037;-74
2021/01/03 03:00:05;;;;;;;103.25;35.60;;;0.20;99.90;;;;;;5017667;28;20381;-74
2021/01/03 03:02:31;;;;;;;93.85;36.72;;;0.20;99.90;;;;;;5016167;28;20029;-74
2021/01/03 03:04:57;;;;;;;106.68;37.83;;;0.10;99.90;;;;;;5018053;28;20462;-74
2021/01/03 03:07:23;;;;;;;101.10;36.83;;;0.30;99.90;;;;;;5018395;28;20030;-74
2021/01/03 03:09:48;;;;;;;119.68;41.22;;;0.40;99.90;;;;;;5017844;28;20021;-74
2021/01/03 03:12:14;;;;;;;96.82;34.42;;;0.50;99.90;;;;;;5017978;28;20049;-73
2021/01/03 03:14:40;;;;;;;111.85;37.58;;;0.30;99.90;;;;;;5017221;28;20048;-74
2021/01/03 03:17:07;;;;;;;94.72;35.75;;;0.20;99.90;;;;;;5016316;28;20026;-74
2021/01/03 03:19:33;;;;;;;101.53;34.38;;;0.30;99.90;;;;;;5017237;28;20029;-74
2021/01/03 03:21:58;;;;;;;93.00;34.83;;;0.40;99.90;;;;;;4999761;28;20053;-74
2021/01/03 03:24:24;;;;;;;91.68;33.15;;;0.50;99.90;;;;;;5017073;28;20072;-73
2021/01/03 03:26:58;;;;;;;76.60;32.65;;;0.60;99.90;;;;;;5016047;28;20034;-73
2021/01/03 03:29:25;;;;;;;96.93;34.25;;;0.60;99.90;;;;;;5017006;28;20051;-74
2021/01/03 03:31:53;;;;;;;113.53;38.05;;;0.90;99.90;;;;;;5017259;28;20026;-73
2021/01/03 03:34:20;;;;;;;106.78;36.70;;;0.90;99.90;;;;;;5016960;28;20030;-74
2021/01/03 03:36:46;;;;;;;103.75;36.72;;;1.00;99.90;;;;;;5017192;28;20030;-74
2021/01/03 03:39:13;;;;;;;107.05;36.58;;;0.90;99.90;;;;;;5017020;28;20029;-74
2021/01/03 03:41:38;;;;;;;109.85;41.05;;;0.90;99.90;;;;;;5017212;28;20022;-74
2021/01/03 03:44:06;;;;;;;113.47;40.15;;;1.00;99.90;;;;;;5015801;28;20033;-74
2021/01/03 03:46:32;;;;;;;100.55;36.75;;;0.80;99.90;;;;;;5016996;28;20109;-73
2021/01/03 03:48:58;;;;;;;102.43;37.42;;;0.80;99.90;;;;;;5017082;28;20415;-74
2021/01/03 03:51:24;;;;;;;110.80;37.17;;;0.80;99.90;;;;;;5016894;28;20100;-74
2021/01/03 03:53:50;;;;;;;102.32;37.22;;;0.80;99.90;;;;;;5016734;28;20022;-74
2021/01/03 03:56:16;;;;;;;103.25;36.78;;;0.90;99.90;;;;;;5012594;28;20026;-73
2021/01/03 03:58:43;;;;;;;95.10;36.28;;;0.90;99.90;;;;;;5014236;28;20092;-74
2021/01/03 04:01:10;;;;;;;110.85;41.40;;;1.00;99.90;;;;;;5013746;28;20029;-74
2021/01/03 04:03:36;;;;;;;102.45;38.30;;;1.00;99.90;;;;;;5014157;28;20032;-74
2021/01/03 04:06:02;;;;;;;109.50;38.78;;;1.00;99.90;;;;;;5013576;28;20018;-74
2021/01/03 04:08:28;;;;;;;110.97;36.50;;;1.00;99.90;;;;;;5013787;28;20093;-74
2021/01/03 04:10:54;;;;;;;109.40;38.33;;;1.00;99.90;;;;;;4995834;28;20029;-74
2021/01/03 04:13:20;;;;;;;97.32;37.15;;;1.10;99.90;;;;;;5012482;28;20022;-74
2021/01/03 04:15:46;;;;;;;98.03;39.25;;;1.10;99.90;;;;;;5013168;28;20029;-74
2021/01/03 04:18:12;;;;;;;102.65;36.33;;;1.00;99.90;;;;;;5013532;28;20034;-74
2021/01/03 04:20:38;;;;;;;93.10;33.35;;;0.90;99.90;;;;;;5013362;28;20022;-73
2021/01/03 04:23:06;;;;;;;100.55;34.53;;;0.70;99.90;;;;;;5013415;28;20126;-74
2021/01/03 04:25:31;;;;;;;90.63;34.22;;;0.60;99.90;;;;;;5013513;28;20493;-74
2021/01/03 04:27:57;;;;;;;93.57;34.75;;;0.50;99.90;;;;;;5013143;28;20061;-74
2021/01/03 04:30:24;;;;;;;93.93;33.92;;;0.20;99.90;;;;;;5013384;28;20093;-73
2021/01/03 04:32:51;;;;;;;93.85;33.15;;;0.20;99.90;;;;;;5013062;28;20025;-75
2021/01/03 04:35:18;;;;;;;84.80;34.00;;;0.20;99.90;;;;;;5013282;28;20390;-73
2021/01/03 04:37:44;;;;;;;85.85;32.08;;;0.20;99.90;;;;;;5011622;28;20049;-74
2021/01/03 04:40:18;;;;;;;83.72;30.58;;;0.20;99.90;;;;;;5013265;28;20474;-74
2021/01/03 04:42:53;;;;;;;75.70;29.98;;;0.20;99.90;;;;;;5013054;28;20022;-74
2021/01/03 04:45:32;;;;;;;69.95;29.65;;;0.10;99.90;;;;;;5012000;28;20030;-74
2021/01/03 04:48:06;;;;;;;77.95;30.48;;;0.00;99.90;;;;;;5012882;28;20022;-74
2021/01/03 04:50:44;;;;;;;65.95;28.13;;;0.20;99.90;;;;;;5013409;28;20026;-74
2021/01/03 04:53:34;;;;;;;75.43;27.83;;;0.50;99.90;;;;;;5013524;28;20132;-74
2021/01/03 04:56:15;;;;;;;67.50;29.08;;;0.50;99.90;;;;;;5013446;28;20033;-74
2021/01/03 04:58:54;;;;;;;74.25;28.08;;;0.40;99.90;;;;;;5012804;28;20033;-72
2021/01/03 05:01:38;;;;;;;73.28;28.70;;;0.40;99.90;;;;;;5012989;28;20478;-74
2021/01/03 05:04:23;;;;;;;71.88;28.20;;;0.50;99.90;;;;;;5012966;28;20107;-74
2021/01/03 05:06:52;;;;;;;68.57;27.40;;;0.40;99.90;;;;;;5012449;28;20025;-74
2021/01/03 05:09:18;;;;;;;70.20;28.85;;;0.30;99.90;;;;;;5012414;28;20215;-74
2021/01/03 05:12:17;;;;;;;79.65;29.58;;;0.20;99.90;;;;;;5012845;28;20029;-73
2021/01/03 05:14:48;;;;;;;83.47;30.33;;;0.10;99.90;;;;;;5010868;28;20038;-74
2021/01/03 05:17:14;;;;;;;73.28;28.50;;;0.10;99.90;;;;;;5011180;28;20025;-74
2021/01/03 05:19:40;;;;;;;76.38;30.80;;;0.00;99.90;;;;;;5010885;28;20371;-73
2021/01/03 05:22:06;;;;;;;75.05;29.05;;;0.10;99.90;;;;;;5012501;28;20018;-74
2021/01/03 05:24:43;;;;;;;77.40;30.20;;;0.10;99.90;;;;;;5012159;28;20022;-74
2021/01/03 05:27:18;;;;;;;74.85;29.08;;;0.20;99.90;;;;;;5012323;28;20079;-74
2021/01/03 05:29:44;;;;;;;75.82;28.58;;;0.20;99.90;;;;;;5012082;28;20148;-74
2021/01/03 05:32:12;;;;;;;81.45;30.23;;;0.10;99.90;;;;;;5012244;28;20140;-74
2021/01/03 05:34:40;;;;;;;72.65;30.95;;;0.10;99.90;;;;;;5011920;28;20022;-73
2021/01/03 05:37:09;;;;;;;73.93;30.17;;;0.30;99.90;;;;;;5012121;28;20026;-74
2021/01/03 05:39:36;;;;;;;77.65;30.88;;;0.20;99.90;;;;;;5011892;28;20018;-74
2021/01/03 05:42:05;;;;;;;77.47;31.00;;;0.40;99.90;;;;;;5012066;28;20028;-73
2021/01/03 05:44:38;;;;;;;84.38;32.47;;;0.40;99.90;;;;;;5010577;28;20482;-74
2021/01/03 05:47:06;;;;;;;76.68;30.67;;;0.40;99.90;;;;;;5011969;28;20229;-74
2021/01/03 05:49:32;;;;;;;90.72;33.50;;;0.40;99.90;;;;;;5011669;28;20026;-74
2021/01/03 05:52:13;;;;;;;75.00;29.05;;;0.50;99.90;;;;;;5011885;28;20034;-74
2021/01/03 05:54:40;;;;;;;79.97;32.90;;;0.60;99.90;;;;;;5011691;28;20030;-74
2021/01/03 05:57:17;;;;;;;76.53;28.65;;;0.70;99.90;;;;;;5011682;28;20030;-74
2021/01/03 05:59:45;;;;;;;75.38;29.25;;;0.60;99.90;;;;;;5011608;28;20022;-73
2021/01/03 06:02:26;;;;;;;79.32;30.25;;;0.60;99.90;;;;;;5011738;28;20509;-74
2021/01/03 06:05:24;;;;;;;75.80;30.60;;;0.70;99.90;;;;;;5011644;28;20112;-73
2021/01/03 06:08:02;;;;;;;75.30;28.63;;;0.80;99.90;;;;;;5011293;28;20064;-74
2021/01/03 06:10:38;;;;;;;80.45;30.20;;;0.90;99.90;;;;;;5011363;28;20093;-74
2021/01/03 06:13:06;;;;;;;70.13;27.88;;;0.60;99.90;;;;;;5011606;28;20029;-73
2021/01/03 06:15:58;;;;;;;77.80;30.38;;;0.40;99.90;;;;;;5009913;28;20038;-75
2021/01/03 06:18:43;;;;;;;;;;;0.30;99.90;;;;;;5011248;28;20038;-74
2021/01/03 06:21:34;;;;;;;85.65;29.42;;;0.10;99.90;;;;;;5010043;28;19935;-74
2021/01/03 06:24:13;;;;;;;84.07;31.63;;;0.20;99.90;;;;;;5011568;28;20030;-74
2021/01/03 06:26:53;;;;;;;87.07;33.72;;;0.00;99.90;;;;;;5011279;28;20482;-74
2021/01/03 06:29:29;;;;;;;89.70;33.30;;;-0.10;99.90;;;;;;5011797;28;20076;-74
2021/01/03 06:32:12;;;;;;;86.80;33.28;;;-0.10;99.90;;;;;;5011635;28;20034;-74
2021/01/03 06:35:21;;;;;;;93.28;34.95;;;-0.20;99.90;;;;;;5011917;28;20033;-74
2021/01/03 06:37:47;;;;;;;87.95;32.83;;;-0.20;99.90;;;;;;5011344;28;20033;-74
2021/01/03 06:40:50;;;;;;;83.75;32.80;;;-0.30;99.90;;;;;;5011490;28;20374;-74
2021/01/03 06:43:57;;;;;;;89.93;35.60;;;-0.20;99.90;;;;;;5009755;28;20096;-74
2021/01/03 06:47:04;;;;;;;86.18;33.45;;;-0.10;99.90;;;;;;4993037;28;20041;-74
2021/01/03 06:49:43;;;;;;;82.57;32.47;;;-0.30;99.90;;;;;;5011292;28;20030;-74
2021/01/03 06:52:30;;;;;;;93.25;32.38;;;-0.20;99.90;;;;;;5009661;28;20036;-74
2021/01/03 06:55:23;;;;;;;89.13;32.30;;;-0.20;99.90;;;;;;5011071;28;20042;-74
2021/01/03 06:58:21;;;;;;;92.18;31.65;;;0.00;99.90;;;;;;5011329;28;20383;-74
2021/01/03 07:00:51;;;;;;;78.88;31.73;;;-0.20;99.90;;;;;;5011080;28;20030;-74
2021/01/03 07:03:22;;;;;;;89.53;34.20;;;-0.20;99.90;;;;;;4993115;28;20030;-73
2021/01/03 07:06:04;;;;;;;85.20;33.47;;;0.00;99.90;;;;;;5010989;28;20494;-74
2021/01/03 07:08:35;;;;;;;;;;;0.00;99.90;;;;;;5011188;28;20505;-74
2021/01/03 07:11:01;;;;;;;101.18;35.75;;;0.10;99.90;;;;;;5010878;28;19909;-74
2021/01/03 07:13:29;;;;;;;93.85;35.22;;;0.20;99.90;;;;;;5009470;28;20084;-74
2021/01/03 07:16:00;;;;;;;92.05;35.75;;;0.40;99.90;;;;;;5010739;28;20065;-74
2021/01/03 07:18:26;;;;;;;84.57;33.53;;;0.50;99.90;;;;;;5010589;28;20030;-74
2021/01/03 07:21:11;;;;;;;75.35;31.83;;;0.50;99.90;;;;;;5010923;28;20375;-74
2021/01/03 07:23:41;;;;;;;76.13;32.08;;;0.40;99.90;;;;;;5009428;28;20052;-74
2021/01/03 07:26:28;;;;;;;81.18;30.45;;;0.40;99.90;;;;;;4993183;28;20022;-74
2021/01/03 07:29:12;;;;;;;93.82;32.47;;;0.30;99.90;;;;;;5011588;28;20022;-74
2021/01/03 07:32:05;;;;;;;84.85;33.33;;;0.20;99.90;;;;;;5014529;28;20017;-74
2021/01/03 07:34:33;;;;;;;82.72;31.75;;;0.50;99.90;;;;;;5013718;28;20045;-74
2021/01/03 07:37:11;;;;;;;83.50;32.33;;;0.50;99.90;;;;;;5012967;28;20036;-73
2021/01/03 07:40:06;;;;;;;87.70;32.65;;;0.40;99.90;;;;;;5014024;28;20371;-73
2021/01/03 07:42:35;;;;;;;87.97;31.73;;;0.50;99.90;;;;;;5014296;28;20041;-74
2021/01/03 07:45:18;;;;;;;77.75;31.08;;;0.70;99.90;;;;;;5012759;28;20030;-73
2021/01/03 07:47:52;;;;;;;79.85;30.92;;;0.60;99.90;;;;;;5014287;28;20057;-74
2021/01/03 07:50:20;;;;;;;86.75;30.88;;;0.40;99.90;;;;;;4996350;28;20096;-74
2021/01/03 07:52:51;;;;;;;89.32;32.45;;;0.60;99.90;;;;;;5014189;28;20065;-74
2021/01/03 07:55:23;;;;;;;99.70;36.33;;;0.70;99.90;;;;;;5012712;28;20022;-74
2021/01/03 07:58:03;;;;;;;;;;;0.60;99.90;;;;;;5013116;28;20030;-74
2021/01/03 08:00:33;;;;;;;86.18;30.73;;;0.50;99.90;;;;;;5013824;28;19906;-74
2021/01/03 08:03:08;;;;;;;77.82;30.83;;;0.50;99.90;;;;;;5014044;28;20119;-74
2021/01/03 08:05:35;;;;;;;77.70;30.75;;;0.50;99.90;;;;;;4996091;28;20075;-74
2021/01/03 08:08:12;;;;;;;87.35;34.17;;;0.40;99.90;;;;;;5014085;28;20034;-74
2021/01/03 08:10:37;;;;;;;94.68;34.03;;;0.50;99.90;;;;;;5012896;28;20069;-74
2021/01/03 08:13:19;;;;;;;86.70;33.03;;;0.60;99.90;;;;;;5013291;28;20053;-73
2021/01/03 08:15:44;;;;;;;81.13;32.05;;;0.60;99.90;;;;;;5012657;28;20040;-74
2021/01/03 08:18:18;;;;;;;91.90;32.88;;;0.50;99.90;;;;;;5013526;28;20038;-74
2021/01/03 08:20:44;;;;;;;78.97;30.38;;;0.50;99.90;;;;;;5013403;28;20024;-74
2021/01/03 08:23:18;;;;;;;81.85;31.08;;;0.50;99.90;;;;;;5013516;28;20022;-74
2021/01/03 08:25:45;;;;;;;82.10;32.95;;;0.50;99.90;;;;;;5013076;28;20030;-73
2021/01/03 08:28:18;;;;;;;86.50;32.95;;;0.40;99.90;;;;;;5013249;28;20033;-74
2021/01/03 08:30:45;;;;;;;90.05;35.50;;;0.50;99.90;;;;;;5013364;28;20413;-74
2021/01/03 08:33:26;;;;;;;82.03;32.78;;;0.70;99.90;;;;;;5012976;28;20034;-74
2021/01/03 08:35:52;;;;;;;85.65;32.58;;;0.80;99.90;;;;;;5013341;28;20120;-74
2021/01/03 08:38:29;;;;;;;80.55;32.33;;;0.80;99.90;;;;;;5012818;28;20468;-74
2021/01/03 08:41:04;;;;;;;95.47;32.95;;;0.80;99.90;;;;;;5011187;28;20034;-74
2021/01/03 08:43:31;;;;;;;68.72;29.05;;;0.80;99.90;;;;;;5012845;28;20030;-74
2021/01/03 08:46:01;;;;;;;77.15;33.08;;;0.80;99.90;;;;;;5013022;28;20014;-75
2021/01/03 08:48:28;;;;;;;69.50;28.50;;;0.80;99.90;;;;;;5012307;28;20084;-74
2021/01/03 08:51:13;;;;;;;77.80;31.02;;;0.80;99.90;;;;;;5011487;28;20029;-74
2021/01/03 08:53:40;;;;;;;72.10;30.80;;;0.70;99.90;;;;;;5012669;28;20030;-74
2021/01/03 08:56:22;;;;;;;72.43;28.63;;;0.80;99.90;;;;;;5012890;28;20025;-74
2021/01/03 08:58:47;;;;;;;;;;;0.90;99.90;;;;;;5013008;28;20024;-73
2021/01/03 09:01:29;;;;;;;83.25;31.58;;;0.70;99.90;;;;;;5011444;28;19905;-74
2021/01/03 09:04:00;;;;;;;75.63;27.60;;;0.40;99.90;;;;;;5012847;28;20080;-74
2021/01/03 09:06:27;;;;;;;80.78;30.10;;;0.30;99.90;;;;;;5012738;28;20034;-74
2021/01/03 09:08:53;;;;;;;79.57;32.00;;;0.20;99.90;;;;;;5012301;28;20032;-74
2021/01/03 09:11:23;;;;;;;86.35;31.52;;;0.30;99.90;;;;;;5012509;28;20033;-74
2021/01/03 09:14:02;;;;;;;81.75;30.92;;;0.30;99.90;;;;;;4995320;28;20036;-73
2021/01/03 09:16:39;;;;;;;88.32;35.15;;;0.40;99.90;;;;;;5012122;28;20061;-74
2021/01/03 09:19:16;;;;;;;89.82;34.28;;;0.40;99.90;;;;;;5012548;28;20516;-74
2021/01/03 09:21:56;;;;;;;77.18;30.38;;;0.30;99.90;;;;;;5012476;28;20014;-74
2021/01/03 09:24:31;;;;;;;77.53;31.70;;;0.30;99.90;;;;;;5011078;28;20026;-74
2021/01/03 09:27:00;;;;;;;80.90;33.85;;;0.40;99.90;;;;;;5011036;28;20026;-73
2021/01/03 09:29:38;;;;;;;75.57;31.27;;;0.40;99.90;;;;;;5012305;28;20040;-74
2021/01/03 09:32:28;;;;;;;90.65;34.97;;;0.50;99.90;;;;;;5011808;28;20053;-73
2021/01/03 09:35:06;;;;;;;81.78;34.08;;;0.60;99.90;;;;;;5012163;28;20037;-74
2021/01/03 09:37:34;;;;;;;87.97;36.42;;;0.40;99.90;;;;;;5011735;28;20029;-73
2021/01/03 09:40:26;;;;;;;82.93;32.63;;;0.30;99.90;;;;;;5012106;28;20056;-75
2021/01/03 09:43:26;;;;;;;75.97;30.50;;;0.40;99.90;;;;;;5011357;28;20018;-73
2021/01/03 09:46:20;;;;;;;75.30;30.75;;;0.60;99.90;;;;;;5011768;28;20315;-74
2021/01/03 09:48:46;;;;;;;71.95;28.33;;;0.60;99.90;;;;;;5011849;28;20037;-74
2021/01/03 09:51:34;;;;;;;71.53;30.15;;;0.80;99.90;;;;;;5011713;28;20405;-73
2021/01/03 09:54:16;;;;;;;66.45;29.63;;;0.80;99.90;;;;;;5010790;28;20274;-74
2021/01/03 09:56:42;;;;;;;;;;;0.80;99.90;;;;;;5012415;28;20026;-74
2021/01/03 09:59:14;;;;;;;69.60;29.08;;;0.60;99.90;;;;;;5011547;28;19957;-74
2021/01/03 10:01:41;;;;;;;70.75;27.45;;;0.50;99.90;;;;;;5011993;28;20169;-74
2021/01/03 10:04:26;;;;;;;73.07;29.02;;;0.50;99.90;;;;;;5011867;28;20022;-74
2021/01/03 10:07:14;;;;;;;72.10;27.88;;;0.60;99.90;;;;;;5011791;28;20026;-74
2021/01/03 10:09:50;;;;;;;72.75;29.55;;;0.80;99.90;;;;;;5008606;28;20061;-72
2021/01/03 10:12:33;;;;;;;76.57;33.22;;;1.00;99.90;;;;;;5011642;28;20363;-75
2021/01/03 10:15:10;;;;;;;78.63;31.20;;;1.10;99.90;;;;;;5011178;28;20036;-74
2021/01/03 10:17:36;;;;;;;57.17;26.38;;;1.20;99.90;;;;;;5010516;28;20052;-75
2021/01/03 10:20:14;;;;;;;62.67;29.42;;;1.40;99.90;;;;;;5011318;28;20022;-74
2021/01/03 10:22:42;;;;;;;66.30;28.60;;;1.50;99.90;;;;;;5011486;28;20033;-74
2021/01/03 10:25:14;;;;;;;66.30;28.60;;;1.50;99.90;;;;;;5011078;28;20014;-75
2021/01/03 10:27:40;;;;;;;66.85;27.08;;;1.50;99.90;;;;;;5010068;28;20450;-74
2021/01/03 10:30:08;;;;;;;66.30;27.42;;;1.30;99.90;;;;;;5009729;28;20034;-74
2021/01/03 10:32:38;;;;;;;61.60;28.05;;;1.40;99.90;;;;;;5010105;28;20030;-75
2021/01/03 10:35:06;;;;;;;64.97;27.67;;;1.40;99.90;;;;;;5009664;28;20513;-75
2021/01/03 10:37:32;;;;;;;63.53;26.75;;;1.30;99.90;;;;;;5011113;28;20156;-74
2021/01/03 10:39:57;;;;;;;67.20;27.92;;;1.30;99.90;;;;;;5010819;28;20121;-74
2021/01/03 10:42:23;;;;;;;65.07;28.42;;;1.30;99.90;;;;;;5010813;28;20055;-74
2021/01/03 10:44:49;;;;;;;63.70;27.17;;;1.20;99.90;;;;;;5011004;28;20498;-73
2021/01/03 10:47:15;;;;;;;63.38;28.17;;;1.20;99.90;;;;;;4993468;28;20116;-73
2021/01/03 10:49:40;;;;;;;60.17;27.15;;;1.40;99.90;;;;;;5011028;28;20123;-74
2021/01/03 10:52:06;;;;;;;64.93;27.02;;;1.50;99.90;;;;;;5009526;28;20037;-75
2021/01/03 10:54:33;;;;;;;66.28;27.75;;;1.40;99.90;;;;;;5011055;28;20022;-74
2021/01/03 10:56:59;;;;;;;65.45;27.08;;;1.40;99.90;;;;;;5009260;28;20029;-74
2021/01/03 10:59:26;;;;;;;69.95;28.45;;;1.50;99.90;;;;;;5010992;28;20022;-74
2021/01/03 11:01:52;;;;;;;54.50;26.50;;;1.70;99.90;;;;;;5011005;28;20037;-75
2021/01/03 11:04:20;;;;;;;63.83;28.52;;;1.70;99.90;;;;;;5012412;28;20093;-74
2021/01/03 11:06:50;;;;;;;63.83;25.35;;;1.60;99.90;;;;;;5014648;28;20033;-75
2021/01/03 11:09:29;;;;;;;67.63;27.83;;;1.70;99.90;;;;;;5013571;28;20397;-74
2021/01/03 11:12:06;;;;;;;68.22;29.13;;;1.60;99.90;;;;;;5013610;28;20382;-74
2021/01/03 11:14:33;;;;;;;69.05;30.30;;;1.30;99.90;;;;;;5014540;28;20022;-74
2021/01/03 11:16:59;;;;;;;70.75;34.60;;;1.20;99.90;;;;;;5014351;28;20030;-74
2021/01/03 11:19:25;;;;;;;58.17;25.67;;;1.20;99.90;;;;;;5014618;28;20390;-74
2021/01/03 11:21:59;;;;;;;62.38;26.33;;;1.20;99.90;;;;;;5014624;28;20449;-74
2021/01/03 11:24:24;;;;;;;60.17;25.15;;;1.30;99.90;;;;;;5014327;28;20028;-74
2021/01/03 11:26:50;;;;;;;67.50;27.95;;;1.60;99.90;;;;;;5014623;28;20025;-74
2021/01/03 11:29:20;;;;;;;54.28;26.05;;;1.70;99.90;;;;;;5014481;28;20034;-75
2021/01/03 11:31:48;;;;;;;55.58;25.63;;;1.80;99.90;;;;;;5014788;28;20382;-74
2021/01/03 11:34:20;;;;;;;54.28;24.30;;;1.70;99.90;;;;;;5012945;28;20026;-74
2021/01/03 11:36:49;;;;;;;55.13;23.65;;;1.60;99.90;;;;;;5014403;28;20054;-74
2021/01/03 11:39:15;;;;;;;55.70;24.45;;;1.50;99.90;;;;;;5014049;28;20022;-75
2021/01/03 11:41:47;;;;;;;58.10;26.10;;;1.50;99.90;;;;;;5014292;28;20494;-74
2021/01/03 11:44:14;;;;;;;61.60;26.30;;;1.60;99.90;;;;;;5014072;28;20029;-74
2021/01/03 11:46:41;;;;;;;56.15;23.88;;;1.50;99.90;;;;;;5014197;28;20029;-75
2021/01/03 11:49:06;;;;;;;53.00;25.23;;;1.40;99.90;;;;;;5014377;28;20478;-74
2021/01/03 11:51:32;;;;;;;60.75;26.08;;;1.40;99.90;;;;;;5014655;28;20029;-74
2021/01/03 11:53:58;;;;;;;55.97;25.88;;;1.60;99.90;;;;;;5014298;28;20025;-74
2021/01/03 11:56:24;;;;;;;59.15;26.80;;;1.70;99.90;;;;;;5014263;28;20026;-74
2021/01/03 11:58:50;;;;;;;64.72;25.92;;;1.80;99.90;;;;;;5013104;28;20022;-74
2021/01/03 12:01:18;;;;;;;53.30;23.92;;;1.70;99.90;;;;;;5013857;28;20072;-74
2021/01/03 12:03:45;;;;;;;49.67;22.05;;;1.60;99.90;;;;;;5012697;28;20029;-74
2021/01/03 12:06:15;;;;;;;53.15;24.42;;;1.60;99.90;;;;;;5013636;28;20366;-74
2021/01/03 12:08:42;;;;;;;54.22;24.35;;;1.50;99.90;;;;;;5012560;28;20402;-74
2021/01/03 12:11:08;;;;;;;56.92;23.95;;;1.50;99.90;;;;;;5013527;28;20109;-74
2021/01/03 12:13:34;;;;;;;53.85;23.65;;;1.60;99.90;;;;;;5013674;28;20101;-73
2021/01/03 12:16:00;;;;;;;53.00;23.77;;;1.70;99.90;;;;;;5012224;28;20034;-74
2021/01/03 12:18:25;;;;;;;48.30;23.38;;;1.60;99.90;;;;;;5013643;28;20022;-74
2021/01/03 12:20:51;;;;;;;52.30;22.73;;;1.60;99.90;;;;;;5011967;28;20359;-75
2021/01/03 12:23:17;;;;;;;59.63;24.70;;;1.40;99.90;;;;;;5013469;28;20030;-74
2021/01/03 12:25:42;;;;;;;49.88;21.85;;;1.30;99.90;;;;;;5012407;28;20018;-74
2021/01/03 12:28:08;;;;;;;56.22;24.23;;;1.40;99.90;;;;;;5013245;28;20130;-75
2021/01/03 12:30:34;;;;;;;53.65;24.98;;;1.70;99.90;;;;;;5013471;28;20121;-74
2021/01/03 12:32:59;;;;;;;56.90;23.80;;;1.90;99.90;;;;;;5013024;28;20021;-74
2021/01/03 12:35:25;;;;;;;46.78;22.77;;;1.80;99.90;;;;;;5013546;28;20049;-74
2021/01/03 12:37:51;;;;;;;51.92;23.48;;;1.80;99.90;;;;;;5012936;28;20029;-74
2021/01/03 12:40:17;;;;;;;53.63;23.75;;;2.00;99.90;;;;;;5013210;28;20022;-75
2021/01/03 12:42:42;;;;;;;47.97;22.02;;;2.20;99.90;;;;;;5013030;28;20289;-74
2021/01/03 12:45:11;;;;;;;48.83;22.70;;;2.20;98.60;;;;;;5013089;28;20076;-75
2021/01/03 12:47:37;;;;;;;47.40;21.83;;;2.40;98.10;;;;;;5012824;28;20104;-74
2021/01/03 12:50:05;;;;;;;52.10;22.35;;;2.40;98.30;;;;;;5013054;28;20049;-74
2021/01/03 12:52:30;;;;;;;50.63;22.65;;;2.50;97.60;;;;;;5012586;28;20022;-74
2021/01/03 12:54:56;;;;;;;93.32;38.25;;;2.40;97.40;;;;;;5012931;28;20087;-74
2021/01/03 12:57:22;;;;;;;87.80;35.63;;;2.10;96.90;;;;;;5012690;28;20470;-74
2021/01/03 12:59:48;;;;;;;135.13;58.72;;;1.90;98.00;;;;;;5012751;28;20050;-74